Time;durP1;ratioP1;P1;durP2;ratioP2;P2;SDS_P1;SDS_P2;PMS_P1;PMS_P2;Temp;Humidity;BMP_temperature;BMP_pressure;BME280_temperature;BME280_humidity;BME280_pressure;Samples;Min_cycle;Max_cycle;Signal;HPM_P1;HPM_P2
2022/03/20 00:01:34;;;;;;;5.67;4.00;;;;;;;4.52;37.33;104092.59;1646938;86;21564;-69
2022/03/20 00:04:01;;;;;;;6.30;4.35;;;;;;;4.53;37.75;104084.07;1658129;84;21084;-67
2022/03/20 00:06:29;;;;;;;6.67;4.47;;;;;;;4.54;37.88;104072.94;1675042;84;21061;-70
2022/03/20 00:08:58;;;;;;;5.55;4.25;;;;;;;4.53;37.82;104073.36;1658286;84;21089;-70
2022/03/20 00:11:28;;;;;;;7.35;4.70;;;;;;;4.53;37.57;104076.33;1666551;84;21502;-68
2022/03/20 00:13:55;;;;;;;7.55;4.85;;;;;;;4.50;37.10;104069.31;1688418;84;21059;-67
2022/03/20 00:16:23;;;;;;;6.30;4.12;;;;;;;4.46;36.73;104067.36;1733723;78;21143;-70
2022/03/20 00:18:50;;;;;;;5.58;4.45;;;;;;;4.42;37.02;104068.00;1786094;78;21050;-70
2022/03/20 00:21:17;;;;;;;7.47;4.30;;;;;;;4.40;37.65;104070.89;1778268;79;20986;-72
2022/03/20 00:23:46;;;;;;;5.40;3.83;;;;;;;4.39;37.46;104057.50;1771397;79;21066;-68
2022/03/20 00:26:15;;;;;;;10.40;5.30;;;;;;;4.39;37.42;104058.79;1782657;79;21011;-70
2022/03/20 00:28:43;;;;;;;7.22;4.58;;;;;;;4.40;37.58;104066.13;1777749;79;21551;-67
2022/03/20 00:31:13;;;;;;;6.40;4.60;;;;;;;4.39;36.92;104051.48;1740079;79;21054;-71
2022/03/20 00:33:40;;;;;;;6.80;4.20;;;;;;;4.36;37.20;104054.77;1797283;79;21072;-70
2022/03/20 00:36:07;;;;;;;6.95;4.05;;;;;;;4.35;37.38;104052.11;1791645;79;20994;-68
2022/03/20 00:38:35;;;;;;;6.22;4.20;;;;;;;4.31;37.17;104040.72;1759939;79;21093;-68
2022/03/20 00:41:03;;;;;;;6.90;4.20;;;;;;;4.31;37.30;104037.28;1798793;79;21030;-69
2022/03/20 00:43:31;;;;;;;5.80;3.98;;;;;;;4.29;37.25;104032.02;1787554;79;21601;-69
2022/03/20 00:45:58;;;;;;;6.25;3.65;;;;;;;4.30;37.52;104030.33;1765547;78;21089;-69
2022/03/20 00:48:26;;;;;;;6.30;3.85;;;;;;;4.31;37.45;104032.98;1776343;79;21035;-67
2022/03/20 00:50:54;;;;;;;5.83;4.15;;;;;;;4.31;37.45;104035.56;1772690;80;21033;-69
2022/03/20 00:53:21;;;;;;;8.78;4.22;;;;;;;4.32;38.04;104028.73;1797001;78;21022;-71
2022/03/20 00:55:49;;;;;;;5.83;3.72;;;;;;;4.35;37.62;104033.64;1779856;78;21085;-71
2022/03/20 00:58:18;;;;;;;7.37;4.08;;;;;;;4.35;37.74;104034.93;1717100;82;21049;-67
2022/03/20 01:00:46;;;;;;;5.85;4.10;;;;;;;4.37;38.06;104029.88;1797061;79;21663;-68
2022/03/20 01:03:14;;;;;;;7.15;4.35;;;;;;;4.38;38.05;104031.64;1713014;83;21700;-67
2022/03/20 01:05:42;;;;;;;4.95;3.58;;;;;;;4.35;37.90;104031.06;1692547;83;21525;-69
2022/03/20 01:08:10;;;;;;;5.80;4.10;;;;;;;4.31;37.65;104030.84;1702990;83;21585;-71
2022/03/20 01:10:38;;;;;;;6.08;4.25;;;;;;;4.24;37.38;104030.89;1721261;83;21109;-71
2022/03/20 01:13:06;;;;;;;6.25;3.83;;;;;;;4.19;37.96;104035.27;1699238;83;21179;-67
2022/03/20 01:15:34;;;;;;;7.45;4.30;;;;;;;4.15;37.54;104035.52;1680960;83;21077;-69
2022/03/20 01:18:03;;;;;;;6.65;4.17;;;;;;;4.11;37.36;104038.72;1678206;84;21061;-69
2022/03/20 01:20:31;;;;;;;4.75;3.90;;;;;;;4.07;37.40;104038.95;1686487;83;21534;-67
2022/03/20 01:22:59;;;;;;;6.40;4.30;;;;;;;4.05;37.86;104040.56;1678619;84;21158;-69
2022/03/20 01:25:26;;;;;;;4.92;3.95;;;;;;;4.03;37.86;104043.84;1694428;83;21054;-67
2022/03/20 01:27:55;;;;;;;5.22;4.33;;;;;;;4.02;38.02;104043.34;1692226;83;21061;-67
2022/03/20 01:30:23;;;;;;;6.62;3.98;;;;;;;3.99;37.78;104046.66;1710700;83;21039;-69
2022/03/20 01:32:50;;;;;;;8.23;3.98;;;;;;;3.98;38.01;104051.30;1695118;83;21094;-72
2022/03/20 01:35:18;;;;;;;5.42;3.80;;;;;;;3.97;37.56;104047.36;1778894;79;21013;-70
2022/03/20 01:37:45;;;;;;;7.33;5.10;;;;;;;3.95;37.70;104033.50;1792381;79;21077;-71
2022/03/20 01:40:14;;;;;;;5.78;4.10;;;;;;;3.94;37.61;104040.34;1776597;80;21082;-69
2022/03/20 01:42:43;;;;;;;6.47;4.05;;;;;;;3.92;37.57;104039.75;1759619;80;21546;-67
2022/03/20 01:45:18;;;;;;;5.45;4.15;;;;;;;3.91;37.86;104040.57;1758524;79;21594;-67
2022/03/20 01:47:47;;;;;;;5.78;4.25;;;;;;;3.89;38.24;104038.31;1692052;82;21537;-71
2022/03/20 01:50:17;;;;;;;5.75;3.77;;;;;;;3.88;38.01;104039.09;1692370;82;21024;-69
2022/03/20 01:52:45;;;;;;;6.37;4.17;;;;;;;3.86;37.86;104035.54;1694069;83;20983;-69
2022/03/20 01:55:13;;;;;;;5.37;4.30;;;;;;;3.85;37.75;104038.94;1712545;83;21033;-68
2022/03/20 01:57:40;;;;;;;9.10;4.50;;;;;;;3.82;37.33;104038.74;1675179;84;21060;-67
2022/03/20 02:00:09;;;;;;;6.03;3.92;;;;;;;3.81;37.54;104031.83;1675165;84;21013;-66
2022/03/20 02:02:42;;;;;;;7.83;4.30;;;;;;;3.79;37.09;104031.72;1668054;85;21046;-66
2022/03/20 02:05:10;;;;;;;6.03;4.30;;;;;;;3.77;37.23;104035.03;1665564;84;21086;-67
2022/03/20 02:07:38;;;;;;;6.53;4.37;;;;;;;3.75;37.43;104034.05;1665875;84;21027;-73
2022/03/20 02:10:09;;;;;;;4.97;3.65;;;;;;;3.73;37.41;104040.37;1665483;85;21554;-66
2022/03/20 02:12:48;;;;;;;;;;;;;;;;;;;;;
2022/03/20 02:15:11;;;;;;;8.50;4.70;;;;;;;3.71;37.41;104035.96;1611773;89;21099;-67
2022/03/20 02:17:39;;;;;;;6.70;4.00;;;;;;;3.69;37.22;104038.84;1590428;89;21610;-70
2022/03/20 02:20:08;;;;;;;7.12;4.17;;;;;;;3.67;36.57;104045.59;1546323;90;21090;-66
2022/03/20 02:22:42;;;;;;;5.42;4.05;;;;;;;3.62;36.76;104052.16;1601047;88;21058;-67
2022/03/20 02:25:14;;;;;;;6.33;4.08;;;;;;;3.58;36.87;104047.63;1610118;88;21102;-67
2022/03/20 02:27:41;;;;;;;;;;;;;;;3.55;37.15;104047.42;1615267;88;21085;-67
2022/03/20 02:30:15;;;;;;;6.12;4.00;;;;;;;3.51;37.37;104044.19;1587048;89;20128;-70
2022/03/20 02:32:48;;;;;;;7.47;4.40;;;;;;;3.49;37.16;104037.66;1646645;85;21202;-72
2022/03/20 02:35:18;;;;;;;7.20;4.55;;;;;;;3.47;37.75;104023.81;1625415;86;21037;-68
2022/03/20 02:37:48;;;;;;;6.30;4.25;;;;;;;3.47;37.45;104027.68;1618335;87;21597;-71
2022/03/20 02:40:18;;;;;;;7.00;4.50;;;;;;;3.45;37.26;104014.22;1608529;87;21065;-67
2022/03/20 02:42:48;;;;;;;5.05;3.85;;;;;;;3.43;37.36;104011.56;1622183;86;21091;-69
2022/03/20 02:45:23;;;;;;;5.50;3.83;;;;;;;3.45;37.63;104016.80;1620806;86;21141;-69
2022/03/20 02:47:51;;;;;;;4.65;3.87;;;;;;;3.45;37.71;104016.80;1643618;86;21058;-72
2022/03/20 02:50:21;;;;;;;6.30;4.37;;;;;;;3.45;37.86;104027.09;1594724;88;21121;-69
2022/03/20 02:53:02;;;;;;;4.85;4.10;;;;;;;3.46;38.07;104016.02;1595296;88;21082;-70
2022/03/20 02:55:35;;;;;;;6.12;4.53;;;;;;;3.48;37.91;104017.89;1588670;88;21621;-70
2022/03/20 02:58:04;;;;;;;7.97;3.92;;;;;;;3.48;37.68;104009.27;1615265;87;21079;-66
2022/03/20 03:00:32;;;;;;;5.28;4.67;;;;;;;3.47;37.92;104010.05;1617556;88;21595;-70
2022/03/20 03:03:02;;;;;;;5.83;4.33;;;;;;;3.47;38.43;104010.05;1620511;87;21107;-69
2022/03/20 03:05:30;;;;;;;7.08;4.78;;;;;;;3.48;38.35;104004.11;1611939;88;21144;-69
2022/03/20 03:10:57;;;;;;;6.67;4.28;;;;;;;3.49;38.09;103995.58;1615050;87;21121;-69
2022/03/20 03:13:34;;;;;;;5.47;4.40;;;;;;;3.51;37.79;104004.28;1657777;84;21109;-69
2022/03/20 03:16:12;;;;;;;5.30;4.03;;;;;;;3.52;37.72;103999.63;1661783;84;21049;-67
2022/03/20 03:18:42;;;;;;;6.42;4.60;;;;;;;3.50;38.04;104006.37;1661759;86;21534;-70
2022/03/20 03:21:17;;;;;;;6.85;4.33;;;;;;;3.52;37.78;104006.07;1673893;84;21063;-68
2022/03/20 03:23:44;;;;;;;5.45;4.15;;;;;;;3.54;37.95;104007.05;1747210;81;21152;-67
2022/03/20 03:26:12;;;;;;;6.00;4.33;;;;;;;3.55;38.05;104003.66;1733366;80;21073;-67
2022/03/20 03:28:39;;;;;;;6.87;3.80;;;;;;;3.56;37.67;104005.45;1749873;81;21081;-72
2022/03/20 03:31:09;;;;;;;6.45;4.15;;;;;;;3.57;37.83;104001.67;1736305;81;21521;-70
2022/03/20 03:35:41;;;;;;;8.53;4.62;;;;;;;3.59;38.18;104001.75;1687904;83;21069;-74
2022/03/20 03:36:09;;;;;;;8.13;4.47;;;;;;;3.61;38.01;104009.16;1683248;83;21077;-69
2022/03/20 03:38:37;;;;;;;9.03;4.50;;;;;;;3.61;37.52;104007.48;1692342;84;21172;-67
2022/03/20 03:41:04;;;;;;;6.67;4.50;;;;;;;3.61;37.61;104006.59;1695995;82;21058;-68
2022/03/20 03:43:31;;;;;;;7.78;4.15;;;;;;;3.62;37.52;104013.53;1739925;80;21063;-68
2022/03/20 03:46:00;;;;;;;5.22;4.30;;;;;;;3.60;36.99;104013.84;1696777;83;21078;-67
2022/03/20 03:48:29;;;;;;;7.67;4.10;;;;;;;3.61;37.10;104016.89;1708570;83;21071;-72
2022/03/20 03:50:56;;;;;;;5.67;4.05;;;;;;;3.59;37.10;104027.11;1744580;80;21059;-67
2022/03/20 03:53:23;;;;;;;7.40;4.17;;;;;;;3.59;37.56;104028.78;1752973;80;21073;-70
2022/03/20 03:55:51;;;;;;;6.87;4.22;;;;;;;3.59;37.89;104034.83;1755351;81;21042;-66
2022/03/20 03:58:20;;;;;;;7.00;4.70;;;;;;;3.60;36.99;104033.15;1785524;79;21057;-67
2022/03/20 04:00:47;;;;;;;6.08;4.22;;;;;;;3.61;37.00;104038.77;1780391;79;21072;-69
2022/03/20 04:03:15;;;;;;;6.33;4.45;;;;;;;3.61;36.98;104042.63;1777953;79;21075;-69
2022/03/20 04:05:42;;;;;;;5.95;4.00;;;;;;;3.59;36.77;104042.55;1772746;80;21093;-68
2022/03/20 04:08:09;;;;;;;5.37;4.15;;;;;;;3.60;36.96;104039.20;1772329;79;21515;-74
2022/03/20 04:10:37;;;;;;;8.15;4.72;;;;;;;3.59;37.06;104042.95;1731667;81;21519;-70
2022/03/20 04:13:05;;;;;;;6.60;4.45;;;;;;;3.61;37.51;104047.78;1707747;82;21054;-70
2022/03/20 04:15:34;;;;;;;6.95;4.35;;;;;;;3.62;37.88;104058.59;1766512;80;21054;-70
2022/03/20 04:18:01;;;;;;;6.87;4.85;;;;;;;3.64;37.68;104058.28;1766739;78;21014;-67
2022/03/20 04:20:30;;;;;;;5.15;4.30;;;;;;;3.64;37.57;104059.56;1771480;79;21074;-70
2022/03/20 04:25:43;;;;;;;6.97;4.72;;;;;;;3.64;37.64;104053.13;1766177;80;21098;-70
2022/03/20 04:28:11;;;;;;;6.62;4.05;;;;;;;3.65;37.78;104056.17;1776650;79;21031;-73
2022/03/20 04:30:38;;;;;;;8.10;4.65;;;;;;;3.67;38.06;104057.19;1763655;81;20976;-70
2022/03/20 04:33:06;;;;;;;4.83;3.95;;;;;;;3.67;38.00;104054.61;1762974;80;21077;-73
2022/03/20 04:35:36;;;;;;;6.90;4.40;;;;;;;3.68;38.20;104052.51;1760408;79;20986;-69
2022/03/20 04:38:04;;;;;;;5.55;4.50;;;;;;;3.70;38.24;104059.92;1770057;80;21022;-69
2022/03/20 04:40:33;;;;;;;6.58;4.50;;;;;;;3.71;37.81;104057.86;1772349;80;21085;-69
2022/03/20 04:43:00;;;;;;;5.87;4.03;;;;;;;3.72;37.88;104059.61;1767046;80;21438;-69
2022/03/20 04:45:27;;;;;;;6.40;4.37;;;;;;;3.73;37.95;104059.70;1766560;79;21065;-71
2022/03/20 04:59:00;;;;;;;6.80;4.10;;;;;;;3.85;38.21;104073.70;1778343;79;21078;-69
2022/03/20 05:01:27;;;;;;;6.45;4.05;;;;;;;3.87;38.35;104081.13;1798959;79;21018;-71
2022/03/20 05:03:54;;;;;;;5.12;4.05;;;;;;;3.89;38.27;104084.29;1777821;79;21608;-67
2022/03/20 05:06:21;;;;;;;5.75;4.40;;;;;;;3.91;38.16;104081.40;1770405;79;20995;-71
2022/03/20 05:08:50;;;;;;;5.58;4.15;;;;;;;3.94;38.13;104079.38;1776383;79;21495;-69
2022/03/20 05:14:03;;;;;;;6.00;4.37;;;;;;;3.97;37.93;104073.13;1775732;79;21029;-72
2022/03/20 05:16:30;;;;;;;6.95;4.35;;;;;;;4.01;38.06;104068.63;1780990;79;21027;-68
2022/03/20 05:18:58;;;;;;;11.08;4.15;;;;;;;4.04;38.04;104076.52;1779153;79;21527;-70
2022/03/20 05:21:26;;;;;;;5.67;3.90;;;;;;;4.09;37.62;104076.41;1774567;78;21010;-67
2022/03/20 05:23:53;;;;;;;5.70;4.40;;;;;;;4.10;37.30;104078.20;1779290;79;21034;-70
2022/03/20 05:26:20;;;;;;;7.12;4.35;;;;;;;4.13;37.29;104080.93;1780184;79;21596;-69
2022/03/20 05:28:48;;;;;;;7.50;4.55;;;;;;;4.16;37.55;104084.98;1793890;79;21533;-69
2022/03/20 05:31:15;;;;;;;7.10;4.65;;;;;;;4.21;37.73;104083.93;1785052;79;22075;-70
2022/03/20 05:33:43;;;;;;;6.58;4.33;;;;;;;4.26;37.43;104087.28;1783928;79;21047;-68
2022/03/20 05:36:10;;;;;;;6.37;4.67;;;;;;;4.33;37.21;104088.52;1769008;79;21021;-67
2022/03/20 05:38:38;;;;;;;7.28;4.60;;;;;;;4.38;37.24;104098.28;1769529;79;21058;-69
2022/03/20 05:43:52;;;;;;;7.45;4.92;;;;;;;4.44;36.75;104099.91;1686925;83;21623;-73
2022/03/20 05:46:18;;;;;;;7.70;5.15;;;;;;;4.45;37.06;104090.07;1685917;83;21034;-69
2022/03/20 05:48:46;;;;;;;8.00;4.53;;;;;;;4.49;36.81;104095.88;1674093;84;21192;-74
2022/03/20 05:51:15;;;;;;;6.10;4.60;;;;;;;4.51;36.94;104100.75;1684979;83;21065;-67
2022/03/20 05:53:42;;;;;;;6.15;4.45;;;;;;;4.55;37.14;104101.41;1680762;83;21019;-67
2022/03/20 05:58:58;;;;;;;6.67;4.55;;;;;;;4.66;36.33;104092.56;1677633;84;21006;-68
2022/03/20 06:01:26;;;;;;;7.03;4.92;;;;;;;4.71;36.33;104098.88;1691078;84;21131;-73
2022/03/20 06:03:53;;;;;;;7.08;4.72;;;;;;;4.75;36.33;104096.05;1674518;84;21156;-69
2022/03/20 06:06:21;;;;;;;6.10;4.55;;;;;;;4.83;36.21;104099.94;1687067;83;21105;-67
2022/03/20 06:08:49;;;;;;;6.75;4.95;;;;;;;4.92;35.92;104110.34;1683966;84;21574;-69
2022/03/20 06:11:17;;;;;;;8.33;5.08;;;;;;;5.00;35.44;104110.78;1681449;82;21064;-67
2022/03/20 06:13:48;;;;;;;6.10;4.55;;;;;;;5.08;35.18;104107.31;1693014;83;21049;-72
2022/03/20 06:16:16;;;;;;;7.50;5.35;;;;;;;5.17;35.24;104103.95;1675728;84;21014;-71
2022/03/20 06:18:43;;;;;;;6.97;4.67;;;;;;;5.30;35.45;104099.89;1739821;79;21668;-72
2022/03/20 06:21:11;;;;;;;5.87;4.20;;;;;;;5.46;35.21;104096.05;1775799;79;21069;-73
2022/03/20 06:23:42;;;;;;;7.47;4.30;;;;;;;5.60;34.67;104094.66;1779523;79;21048;-70
2022/03/20 06:26:09;;;;;;;7.15;4.83;;;;;;;5.73;34.61;104097.44;1764557;80;21086;-69
2022/03/20 06:28:41;;;;;;;8.03;4.75;;;;;;;5.87;34.38;104105.94;1768977;79;21066;-68
2022/03/20 06:31:10;;;;;;;5.35;4.70;;;;;;;5.96;34.29;104112.45;1764333;80;21005;-69
2022/03/20 06:33:37;;;;;;;6.87;4.53;;;;;;;6.06;33.75;104114.68;1766726;79;21030;-70
2022/03/20 06:36:05;;;;;;;6.00;4.30;;;;;;;6.15;33.58;104107.39;1767428;80;21022;-70
2022/03/20 06:38:34;;;;;;;6.37;4.30;;;;;;;6.23;33.39;104107.36;1778961;79;20983;-69
2022/03/20 06:41:02;;;;;;;6.30;4.53;;;;;;;6.31;33.02;104102.16;1764682;80;21124;-67
2022/03/20 06:43:30;;;;;;;6.55;4.12;;;;;;;6.37;33.01;104099.86;1755347;80;21027;-70
2022/03/20 06:45:57;;;;;;;5.10;4.10;;;;;;;6.43;32.84;104101.84;1773249;79;21054;-67
2022/03/20 06:48:26;;;;;;;5.50;4.05;;;;;;;6.50;33.13;104089.30;1770241;79;21527;-70
2022/03/20 06:50:53;;;;;;;6.87;4.70;;;;;;;6.62;33.16;104099.73;1772427;80;21695;-70
2022/03/20 06:53:20;;;;;;;9.03;4.95;;;;;;;6.71;34.06;104095.00;1774914;80;21053;-68
2022/03/20 06:55:51;;;;;;;8.68;4.80;;;;;;;6.76;33.59;104089.65;1782404;79;21013;-69
2022/03/20 06:58:21;;;;;;;9.08;6.17;;;;;;;6.78;33.87;104088.02;1772685;80;20967;-68
2022/03/20 07:00:50;;;;;;;6.85;4.95;;;;;;;6.72;34.45;104089.89;1778921;79;21011;-71
2022/03/20 07:03:17;;;;;;;6.85;5.05;;;;;;;6.70;34.56;104082.90;1715573;82;21053;-73
2022/03/20 07:05:44;;;;;;;7.78;5.30;;;;;;;6.66;34.77;104084.86;1728480;81;21050;-68
2022/03/20 07:08:14;;;;;;;7.62;5.28;;;;;;;6.54;35.17;104085.15;1723006;81;21105;-69
2022/03/20 07:10:42;;;;;;;6.50;4.70;;;;;;;6.49;35.75;104077.16;1713843;81;21134;-67
2022/03/20 07:15:58;;;;;;;7.70;5.10;;;;;;;6.69;35.09;104071.65;1713853;81;21036;-67
2022/03/20 07:18:26;;;;;;;8.20;4.85;;;;;;;6.87;35.46;104070.30;1723276;81;21063;-66
2022/03/20 07:20:54;;;;;;;8.13;4.70;;;;;;;6.96;35.29;104066.45;1720286;81;21069;-72
2022/03/20 07:23:23;;;;;;;7.60;5.20;;;;;;;7.01;34.96;104065.34;1704913;83;21067;-70
2022/03/20 07:31:21;;;;;;;6.05;4.65;;;;;;;7.19;35.16;104062.31;1706235;82;21016;-70
2022/03/20 07:33:49;;;;;;;8.03;5.03;;;;;;;7.29;35.32;104066.64;1706475;83;21553;-71
2022/03/20 07:36:19;;;;;;;5.78;4.58;;;;;;;7.39;34.74;104057.19;1705385;83;21183;-67
2022/03/20 07:38:46;;;;;;;6.53;4.70;;;;;;;7.47;34.18;104054.91;1690971;83;21121;-73
2022/03/20 07:41:14;;;;;;;6.65;5.17;;;;;;;7.55;34.22;104056.13;1697733;83;21058;-69
2022/03/20 07:43:41;;;;;;;8.65;5.35;;;;;;;7.65;34.75;104050.91;1674152;83;20989;-71
2022/03/20 07:46:08;;;;;;;6.87;4.80;;;;;;;7.73;34.87;104050.86;1680161;83;21558;-69
2022/03/20 07:48:37;;;;;;;8.05;5.10;;;;;;;7.79;35.03;104052.41;1681415;83;21116;-67
2022/03/20 07:51:05;;;;;;;8.08;4.50;;;;;;;7.84;35.49;104051.77;1722654;81;21058;-68
2022/03/20 07:53:33;;;;;;;7.20;5.20;;;;;;;7.89;35.52;104052.83;1730209;80;21103;-69
2022/03/20 07:56:02;;;;;;;6.22;4.85;;;;;;;7.89;33.43;104048.94;1702005;81;21104;-68
2022/03/20 07:58:29;;;;;;;7.80;5.20;;;;;;;7.87;31.04;104047.98;1708295;81;21067;-67
2022/03/20 08:00:56;;;;;;;8.30;5.42;;;;;;;7.83;30.92;104049.98;1765191;78;21002;-68
2022/03/20 08:03:24;;;;;;;5.78;4.37;;;;;;;7.78;29.80;104046.73;1770041;80;21534;-68
2022/03/20 08:05:54;;;;;;;6.72;5.10;;;;;;;7.74;29.38;104044.44;1792047;79;21539;-68
2022/03/20 08:08:21;;;;;;;7.33;5.00;;;;;;;7.70;29.61;104038.65;1784291;79;21019;-67
2022/03/20 08:10:48;;;;;;;8.30;5.30;;;;;;;7.67;29.23;104034.61;1778214;80;21054;-71
2022/03/20 08:13:16;;;;;;;5.80;5.20;;;;;;;7.66;28.94;104035.45;1783749;79;20990;-71
2022/03/20 08:15:43;;;;;;;5.65;4.37;;;;;;;7.68;28.89;104031.22;1786550;79;21073;-69
2022/03/20 08:18:11;;;;;;;7.80;4.75;;;;;;;7.72;29.23;104027.94;1791125;79;21483;-68
2022/03/20 08:20:40;;;;;;;6.80;4.58;;;;;;;7.79;28.96;104022.59;1768622;79;21047;-70
2022/03/20 08:23:08;;;;;;;6.75;4.92;;;;;;;7.87;28.53;104020.77;1772208;79;21000;-69
2022/03/20 08:25:35;;;;;;;6.03;4.33;;;;;;;7.95;27.90;104025.88;1760696;79;21098;-75
2022/03/20 08:28:05;;;;;;;5.65;3.85;;;;;;;8.02;28.36;104025.29;1774985;79;21101;-70
2022/03/20 08:30:33;;;;;;;5.03;3.83;;;;;;;8.09;27.96;104019.54;1752232;80;21061;-69
2022/03/20 08:33:05;;;;;;;4.97;3.58;;;;;;;8.17;28.08;104012.05;1777208;79;21063;-67
2022/03/20 08:35:34;;;;;;;5.47;4.12;;;;;;;8.23;28.10;104017.08;1769883;79;21125;-69
2022/03/20 08:38:03;;;;;;;5.30;4.00;;;;;;;8.30;28.31;104014.76;1758550;80;21094;-68
2022/03/20 08:40:33;;;;;;;6.25;4.03;;;;;;;8.34;27.91;104012.75;1763736;80;21036;-74
2022/03/20 08:43:04;;;;;;;7.62;3.62;;;;;;;8.37;28.01;104018.05;1711246;83;21044;-69
2022/03/20 08:45:33;;;;;;;4.45;3.50;;;;;;;8.43;28.22;104018.31;1713355;82;21114;-68
2022/03/20 08:48:00;;;;;;;11.40;4.08;;;;;;;8.52;27.90;104010.86;1673129;85;21066;-67
2022/03/20 08:50:28;;;;;;;4.47;3.75;;;;;;;8.55;27.30;104007.09;1652010;86;21135;-72
2022/03/20 08:52:56;;;;;;;5.00;3.10;;;;;;;8.52;26.92;104004.38;1714476;81;21011;-67
2022/03/20 08:55:25;;;;;;;4.37;3.02;;;;;;;8.54;26.80;104000.13;1667141;85;21114;-67
2022/03/20 08:57:54;;;;;;;4.53;3.40;;;;;;;8.58;26.71;104007.20;1664071;86;21134;-68
2022/03/20 09:00:25;;;;;;;5.08;3.62;;;;;;;8.64;26.11;104012.22;1644149;86;21063;-71
2022/03/20 09:02:52;;;;;;;4.37;3.80;;;;;;;8.71;26.68;104005.55;1618622;87;21123;-70
2022/03/20 09:05:23;;;;;;;6.75;3.87;;;;;;;8.80;26.92;104004.16;1627664;86;21139;-74
2022/03/20 09:07:50;;;;;;;4.97;3.80;;;;;;;8.88;27.09;104001.87;1639395;86;21094;-67
2022/03/20 09:10:20;;;;;;;5.80;3.92;;;;;;;8.94;27.16;104000.80;1628064;85;21067;-72
2022/03/20 09:12:48;;;;;;;6.08;4.40;;;;;;;8.98;27.48;103998.33;1611594;86;21103;-68
2022/03/20 09:15:17;;;;;;;5.92;4.37;;;;;;;9.05;27.26;104004.64;1651843;85;21102;-74
2022/03/20 09:20:32;;;;;;;8.33;4.35;;;;;;;9.19;28.44;104003.41;1659164;85;21570;-68
2022/03/20 09:23:00;;;;;;;7.42;4.33;;;;;;;9.30;28.47;103995.59;1658712;85;21610;-68
2022/03/20 09:25:27;;;;;;;6.00;4.55;;;;;;;9.37;28.50;103996.69;1664381;85;21105;-68
2022/03/20 09:27:54;;;;;;;6.83;5.35;;;;;;;9.43;28.28;103995.19;1644353;85;21031;-70
2022/03/20 09:30:21;;;;;;;8.65;4.85;;;;;;;9.50;28.80;103996.30;1656894;86;21069;-69
2022/03/20 09:32:50;;;;;;;7.15;5.28;;;;;;;9.55;28.62;103997.31;1659747;84;21537;-68
2022/03/20 09:35:17;;;;;;;6.60;5.30;;;;;;;9.58;28.53;103997.44;1685318;83;21062;-67
2022/03/20 09:37:46;;;;;;;7.78;5.03;;;;;;;9.56;28.39;103988.25;1686076;84;21032;-68
2022/03/20 09:40:14;;;;;;;10.85;5.80;;;;;;;9.54;28.78;103996.42;1675459;84;21037;-70
2022/03/20 09:42:42;;;;;;;8.28;4.80;;;;;;;9.56;28.98;103992.16;1708348;83;21047;-71
2022/03/20 09:45:10;;;;;;;8.68;5.53;;;;;;;9.56;28.91;103992.16;1683541;83;21521;-68
2022/03/20 09:47:40;;;;;;;8.20;4.80;;;;;;;9.56;28.68;103994.76;1692697;82;21062;-67
2022/03/20 09:50:09;;;;;;;7.37;4.78;;;;;;;9.57;28.98;103996.54;1631684;86;21205;-68
2022/03/20 09:52:37;;;;;;;6.50;5.05;;;;;;;9.61;29.00;103993.21;1662018;85;21026;-68
2022/03/20 09:55:07;;;;;;;7.03;4.50;;;;;;;9.67;29.04;103997.72;1658556;86;21123;-71
2022/03/20 09:57:36;;;;;;;;;;;;;;;9.74;28.98;103995.39;1681002;84;21038;-71
2022/03/20 10:00:11;;;;;;;6.97;4.40;;;;;;;9.79;29.00;103994.22;1682238;84;20152;-71
2022/03/20 10:02:37;;;;;;;5.65;4.60;;;;;;;9.82;28.73;103999.13;1693818;83;21057;-72
2022/03/20 10:05:07;;;;;;;6.05;4.28;;;;;;;9.86;28.93;103997.50;1693890;83;21067;-70
2022/03/20 10:07:40;;;;;;;6.12;4.37;;;;;;;9.95;29.02;103999.52;1683183;83;21065;-71
2022/03/20 10:10:22;;;;;;;6.90;4.42;;;;;;;9.98;28.44;103986.59;1671038;85;21102;-70
2022/03/20 10:12:56;;;;;;;6.35;4.55;;;;;;;10.02;28.39;103991.06;1705689;82;21051;-71
2022/03/20 10:15:36;;;;;;;7.28;4.47;;;;;;;10.07;28.26;103989.50;1699280;83;20971;-71
2022/03/20 10:18:24;;;;;;;6.03;3.90;;;;;;;10.11;28.15;103983.59;1666827;85;21161;-71
2022/03/20 10:20:55;;;;;;;8.10;4.70;;;;;;;10.15;27.67;103985.45;1699652;83;21054;-70
2022/03/20 10:23:41;;;;;;;7.08;4.65;;;;;;;10.17;27.60;103988.98;1682379;83;21622;-73
2022/03/20 10:26:11;;;;;;;5.83;4.03;;;;;;;10.20;27.72;103994.30;1677886;83;21067;-70
2022/03/20 10:28:53;;;;;;;6.37;4.70;;;;;;;10.30;28.16;104004.16;1679938;83;21534;-72
2022/03/20 10:31:20;;;;;;;6.22;4.50;;;;;;;10.41;27.87;103988.02;1677096;83;21059;-70
2022/03/20 10:34:02;;;;;;;7.15;4.45;;;;;;;10.49;27.86;103998.64;1694783;84;21139;-70
2022/03/20 10:36:34;;;;;;;7.22;4.22;;;;;;;10.55;28.04;103991.05;1671946;85;21050;-72
2022/03/20 10:39:02;;;;;;;;;;;;;;;10.60;27.92;103988.14;1580908;90;21061;-68
2022/03/20 10:41:34;;;;;;;7.10;4.28;;;;;;;10.60;28.27;103986.84;1579247;89;20125;-70
2022/03/20 10:44:03;;;;;;;6.97;4.08;;;;;;;10.64;28.38;103988.69;1603123;89;21586;-68
2022/03/20 10:46:32;;;;;;;5.30;4.40;;;;;;;10.68;28.12;103984.45;1575999;89;21037;-70
2022/03/20 10:49:01;;;;;;;8.15;4.53;;;;;;;10.64;27.93;103986.09;1576134;90;21201;-70
2022/03/20 10:51:42;;;;;;;5.92;5.03;;;;;;;10.60;28.37;103975.13;1593760;89;21102;-69
2022/03/20 10:54:14;;;;;;;5.12;3.95;;;;;;;10.58;28.55;103976.80;1580278;90;21180;-68
2022/03/20 10:56:57;;;;;;;6.12;4.30;;;;;;;10.52;28.33;103970.11;1602897;87;21081;-71
2022/03/20 10:59:27;;;;;;;7.70;4.37;;;;;;;10.42;28.29;103968.08;1571704;89;21090;-70
2022/03/20 11:01:54;;;;;;;6.45;4.53;;;;;;;10.34;28.96;103969.57;1516730;94;21083;-71
2022/03/20 11:04:23;;;;;;;5.92;3.95;;;;;;;10.33;29.45;103973.00;1558400;92;21094;-68
2022/03/20 11:06:54;;;;;;;4.90;3.92;;;;;;;10.30;29.45;103963.41;1551509;91;21093;-68
2022/03/20 11:09:21;;;;;;;4.53;3.72;;;;;;;10.30;29.27;103957.30;1553804;92;21125;-71
2022/03/20 11:11:54;;;;;;;5.83;4.05;;;;;;;10.32;29.44;103955.63;1565127;90;21101;-68
2022/03/20 11:14:25;;;;;;;7.65;3.95;;;;;;;10.36;29.57;103956.18;1572028;90;21057;-70
2022/03/20 11:17:00;;;;;;;4.75;3.65;;;;;;;10.39;28.95;103962.77;1599478;88;21062;-71
2022/03/20 11:19:31;;;;;;;4.58;4.12;;;;;;;10.37;29.00;103949.71;1630055;87;21037;-71
2022/03/20 11:22:04;;;;;;;8.08;3.55;;;;;;;10.39;29.08;103954.95;1618821;87;21140;-72
2022/03/20 11:24:35;;;;;;;5.50;3.92;;;;;;;10.42;29.11;103952.45;1560726;91;21076;-68
2022/03/20 11:27:14;;;;;;;;;;;;;;;;;;;;;
2022/03/20 11:29:46;;;;;;;4.53;3.95;;;;;;;10.52;29.66;103946.68;1487019;95;21361;-71
2022/03/20 11:32:13;;;;;;;5.53;3.62;;;;;;;10.62;29.92;103946.09;1482232;95;21119;-70
2022/03/20 11:34:46;;;;;;;7.17;4.28;;;;;;;10.72;30.16;103942.91;1478251;95;21152;-69
2022/03/20 11:37:15;;;;;;;7.30;4.50;;;;;;;10.82;30.30;103942.33;1483827;95;21142;-70
2022/03/20 11:40:13;;;;;;;5.33;3.90;;;;;;;10.91;30.26;103939.98;1472522;96;21099;-69
2022/03/20 11:42:40;;;;;;;6.42;3.95;;;;;;;10.97;29.84;103942.76;1451253;97;21108;-68
2022/03/20 11:45:11;;;;;;;4.62;3.70;;;;;;;11.03;29.87;103930.30;1449398;98;21152;-72
2022/03/20 11:47:43;;;;;;;4.60;3.22;;;;;;;11.08;29.62;103933.52;1457644;98;21133;-70
2022/03/20 11:50:21;;;;;;;6.03;3.55;;;;;;;11.13;29.48;103921.47;1468781;97;21106;-71
2022/03/20 11:53:02;;;;;;;6.05;3.65;;;;;;;11.15;29.27;103922.39;1470582;96;21074;-68
2022/03/20 11:55:42;;;;;;;4.80;3.30;;;;;;;11.17;29.73;103919.40;1463106;96;21101;-68
2022/03/20 11:58:24;;;;;;;6.15;3.37;;;;;;;11.21;29.52;103909.95;1427608;98;21632;-69
2022/03/20 12:01:05;;;;;;;6.50;3.72;;;;;;;11.23;29.33;103907.83;1450530;95;21178;-68
2022/03/20 12:04:04;;;;;;;4.72;3.22;;;;;;;11.25;28.74;103903.53;1484333;94;21124;-68
2022/03/20 12:06:43;;;;;;;5.28;3.80;;;;;;;11.27;28.38;103897.94;1485116;95;21097;-69
2022/03/20 12:09:56;;;;;;;14.73;3.67;;;;;;;11.29;28.20;103901.91;1516650;91;21238;-68
2022/03/20 12:12:49;;;;;;;7.25;3.30;;;;;;;11.31;28.19;103902.38;1545278;91;21096;-70
2022/03/20 12:15:20;;;;;;;9.10;3.87;;;;;;;11.34;28.49;103898.56;1561961;90;21747;-71
2022/03/20 12:18:02;;;;;;;4.87;3.22;;;;;;;11.34;28.35;103895.95;1594462;89;21091;-70
2022/03/20 12:21:00;;;;;;;4.40;2.85;;;;;;;11.35;28.42;103892.48;1602120;87;21064;-73
2022/03/20 12:23:40;;;;;;;3.80;2.80;;;;;;;11.35;28.74;103885.97;1581394;89;21178;-74